KGRF/GRF METAR and TAF weather

Enter ICAO airport designator
Station Type Date Time Source
KGRF METAR 2020/07/11 03:58 UTC NOAA

KGRF 110358Z AUTO 28004KT 10SM CLR 19/14 A3012 RMK AO2 SLP203 T01940142 TSNO $


Station Type Date Time Source
KGRF Decoded METAR 2020/07/11 03:58 UTC NOAA

Fort Lewis / Gray U. S. Army Airfield, WA, United States (KGRF) 47-07N 122-33W 87M
Jul 10, 2020 - 11:58 PM EDT / 2020.07.11 0358 UTC
Wind: from the W (280 degrees) at 5 MPH (4 KT):0
Visibility: 10 mile(s):0
Sky conditions: clear
Temperature: 66.9 F (19.4 C)
Dew Point: 57.6 F (14.2 C)
Relative Humidity: 71%
Pressure (altimeter): 30.12 in. Hg (1019 hPa)
ob: KGRF 110358Z AUTO 28004KT 10SM CLR 19/14 A3012 RMK AO2 SLP203 T01940142 TSNO
cycle: 4

Station Type Date Time Source
KGRF TAF 2020/07/10 21:21 UTC NOAA

TAF TAF KGRF 102110Z 1021/1203 VRB06KT 9999 FEW040 QNH3013INS
BECMG 1103/1104 VRB06KT 9999 SCT050 QNH3012INS
BECMG 1110/1111 VRB06KT 9999 BKN030 QNH3011INS
TEMPO 1112/1115 8000 BR BKN020 OVC050
BECMG 1116/1117 VRB06KT 9999 OVC020 QNH3010INS
TEMPO 1119/1120 9000 -RA
BECMG 1120/1121 21010G15KT 9999 BKN030 510023 QNH3013INS TX22/1023Z TN11/1110Z

Example: see airport list